Time;durP1;ratioP1;P1;durP2;ratioP2;P2;SDS_P1;SDS_P2;PMS_P1;PMS_P2;Temp;Humidity;BMP_temperature;BMP_pressure;BME280_temperature;BME280_humidity;BME280_pressure;Samples;Min_cycle;Max_cycle;Signal;HPM_P1;HPM_P2
2023/01/24 00:00:28;;;;;;;;;;;;;;;1.04;100.00;104006.94;5070775;28;20409;-74
2023/01/24 00:02:53;;;;;;;;;;;;;;;1.05;100.00;104008.72;5061672;28;19924;-75
2023/01/24 00:05:19;;;;;;;;;;;;;;;1.05;100.00;104008.72;5065629;28;20360;-75
2023/01/24 00:07:44;;;;;;;;;;;;;;;1.04;100.00;104010.44;5067571;28;19924;-75
2023/01/24 00:10:10;;;;;;;;;;;;;;;1.05;100.00;104006.13;5065163;28;19935;-74
2023/01/24 00:12:36;;;;;;;;;;;;;;;1.06;100.00;104007.91;5067080;28;20020;-74
2023/01/24 00:15:01;;;;;;;;;;;;;;;1.07;100.00;104001.84;5061584;28;21704;-74
2023/01/24 00:17:27;;;;;;;;;;;;;;;1.08;100.00;104001.03;5059008;28;19944;-74
2023/01/24 00:19:52;;;;;;;;;;;;;;;1.07;100.00;103991.41;5061080;28;19929;-75
2023/01/24 00:22:17;;;;;;;;;;;;;;;1.08;100.00;103987.97;5062800;28;19933;-75
2023/01/24 00:24:43;;;;;;;;;;;;;;;1.08;100.00;103981.06;5062864;28;19932;-75
2023/01/24 00:27:08;;;;;;;;;;;;;;;1.09;100.00;103976.72;5063636;28;20014;-75
2023/01/24 00:29:34;;;;;;;;;;;;;;;1.09;100.00;103987.16;5047295;28;19931;-76
2023/01/24 00:31:59;;;;;;;;;;;;;;;1.11;100.00;103984.63;5068168;28;19924;-77
2023/01/24 00:34:24;;;;;;;;;;;;;;;1.11;100.00;103984.63;5061010;28;19935;-76
2023/01/24 00:36:50;;;;;;;;;;;;;;;1.12;100.00;103987.31;5060899;28;19928;-74
2023/01/24 00:39:15;;;;;;;;;;;;;;;1.12;100.00;103984.69;5062759;28;19932;-75
2023/01/24 00:41:41;;;;;;;;;;;;;;;1.12;100.00;103992.53;5070916;28;20469;-74
2023/01/24 00:44:06;;;;;;;;;;;;;;;1.12;100.00;103983.78;5052242;28;19928;-74
2023/01/24 00:46:31;;;;;;;;;;;;;;;1.11;100.00;103988.13;5044388;28;19931;-74
2023/01/24 00:48:58;;;;;;;;;;;;;;;1.11;100.00;103987.22;5066524;28;19932;-74
2023/01/24 00:51:23;;;;;;;;;;;;;;;1.11;100.00;103989.84;5059988;28;19976;-75
2023/01/24 00:53:49;;;;;;;;;;;;;;;1.11;100.00;103982.91;5068803;28;19935;-75
2023/01/24 00:56:14;;;;;;;;;;;;;;;1.11;100.00;103989.84;5060560;28;19932;-75
2023/01/24 00:58:39;;;;;;;;;;;;;;;1.11;100.00;103995.06;5061914;28;19994;-75
2023/01/24 01:01:05;;;;;;;;;;;;;;;1.10;100.00;103994.19;5062543;28;19971;-75
2023/01/24 01:03:30;;;;;;;;;;;;;;;1.10;100.00;103994.19;5044353;28;20463;-75
2023/01/24 01:05:57;;;;;;;;;;;;;;;1.09;100.00;103989.75;5059836;28;19932;-76
2023/01/24 01:08:22;;;;;;;;;;;;;;;1.10;100.00;103995.88;5066462;28;20414;-76
2023/01/24 01:10:48;;;;;;;;;;;;;;;1.08;100.00;104001.94;5063335;28;19939;-75
2023/01/24 01:13:13;;;;;;;;;;;;;;;1.08;100.00;103999.31;5062614;28;19986;-75
2023/01/24 01:15:38;;;;;;;;;;;;;;;1.09;100.00;104005.41;5062566;28;19992;-76
2023/01/24 01:18:04;;;;;;;;;;;;;;;1.08;100.00;103994.09;5065450;28;20031;-75
2023/01/24 01:20:29;;;;;;;;;;;;;;;1.09;100.00;104002.81;5060600;28;19936;-75
2023/01/24 01:22:55;;;;;;;;;;;;;;;1.07;100.00;103999.25;5075285;28;19967;-75
2023/01/24 01:25:20;;;;;;;;;;;;;;;1.07;100.00;104000.16;5065835;28;20567;-74
2023/01/24 01:27:46;;;;;;;;;;;;;;;1.05;100.00;103996.56;5063150;28;20412;-76
2023/01/24 01:30:11;;;;;;;;;;;;;;;1.07;100.00;103994.94;5061591;28;19928;-75
2023/01/24 01:32:37;;;;;;;;;;;;;;;1.06;100.00;103992.25;5058326;28;19924;-75
2023/01/24 01:35:02;;;;;;;;;;;;;;;1.07;100.00;103999.25;5065772;28;20013;-75
2023/01/24 01:37:28;;;;;;;;;;;;;;;1.07;100.00;103989.72;5063554;28;19935;-75
2023/01/24 01:39:53;;;;;;;;;;;;;;;1.08;100.00;103985.38;5062136;28;20353;-75
2023/01/24 01:42:18;;;;;;;;;;;;;;;1.10;100.00;103990.66;5063984;28;19992;-75
2023/01/24 01:44:49;;;;;;;;;;;;;;;1.09;100.00;103989.75;5055693;28;20452;-75
2023/01/24 01:47:18;;;;;;;;;;;;;;;1.10;100.00;103994.19;5045733;28;20010;-74
2023/01/24 01:49:44;;;;;;;;;;;;;;;1.11;100.00;103985.53;5062340;28;19930;-75
2023/01/24 01:52:10;;;;;;;;;;;;;;;1.12;100.00;103983.78;5059405;28;20717;-76
2023/01/24 01:54:36;;;;;;;;;;;;;;;1.13;100.00;103985.59;5064696;28;19928;-75
2023/01/24 01:57:12;;;;;;;;;;;;;;;1.13;100.00;103991.69;5062031;28;20407;-75
2023/01/24 01:59:48;;;;;;;;;;;;;;;1.15;100.00;103991.78;5065393;28;20659;-75
2023/01/24 02:02:14;;;;;;;;;;;;;;;1.15;100.00;103989.16;5060178;28;19960;-75
2023/01/24 02:04:40;;;;;;;;;;;;;;;1.15;100.00;103984.81;5065297;28;20724;-75
2023/01/24 02:07:06;;;;;;;;;;;;;;;1.16;100.00;103986.63;5057168;28;19929;-76
2023/01/24 02:09:41;;;;;;;;;;;;;;;1.14;100.00;103980.44;5060565;28;19981;-75
2023/01/24 02:12:11;;;;;;;;;;;;;;;1.14;100.00;103975.22;5066012;28;20011;-75
2023/01/24 02:17:20;;;;;;;;;;;;;;;1.16;100.00;103973.59;5066021;28;20030;-75
2023/01/24 02:20:05;;;;;;;;;;;;;;;1.16;100.00;103973.59;5031906;28;19928;-74
2023/01/24 02:22:35;;;;;;;;;;;;;;;1.18;100.00;103973.63;5062138;28;20335;-74
2023/01/24 02:25:21;;;;;;;;;;;;;;;1.19;100.00;103980.63;5064799;28;20291;-75
2023/01/24 02:27:46;;;;;;;;;;;;;;;1.18;100.00;103974.53;5061692;28;19939;-76
2023/01/24 02:30:12;;;;;;;;;;;;;;;1.19;100.00;103972.78;5061089;28;19925;-75
2023/01/24 02:32:37;;;;;;;;;;;;;;;1.19;100.00;103968.47;5061810;28;19970;-75
2023/01/24 02:35:03;;;;;;;;;;;;;;;1.18;100.00;103965.78;5064470;28;20439;-75
2023/01/24 02:37:29;;;;;;;;;;;;;;;1.20;100.00;103966.78;5081379;28;19924;-75
2023/01/24 02:39:55;;;;;;;;;;;;;;;1.20;100.00;103958.94;5069433;28;19946;-75
2023/01/24 02:42:22;;;;;;;;;;;;;;;1.20;100.00;103970.25;5058810;28;20108;-75
2023/01/24 02:44:53;;;;;;;;;;;;;;;1.20;100.00;103964.16;5047268;28;19963;-75
2023/01/24 02:47:18;;;;;;;;;;;;;;;1.20;100.00;103956.34;5056939;28;20196;-76
2023/01/24 02:49:43;;;;;;;;;;;;;;;1.19;100.00;103954.53;5064992;28;19924;-75
2023/01/24 02:54:53;;;;;;;;;;;;;;;1.22;100.00;103958.16;5064322;28;19928;-75
2023/01/24 03:00:06;;;;;;;;;;;;;;;1.25;100.00;103961.75;5061919;28;19929;-75
2023/01/24 03:02:31;;;;;;;;;;;;;;;1.24;100.00;103962.59;5063000;28;19924;-75
2023/01/24 03:04:57;;;;;;;;;;;;;;;1.26;100.00;103967.06;5054971;28;20290;-75
2023/01/24 03:07:22;;;;;;;;;;;;;;;1.29;100.00;103963.66;5056029;28;19932;-75
2023/01/24 03:09:47;;;;;;;;;;;;;;;1.29;100.00;103963.66;5060937;28;19932;-75
2023/01/24 03:36:50;;;;;;;;;;;;;;;1.36;100.00;103968.31;5059735;28;20441;-75
2023/01/24 03:41:59;;;;;;;;;;;;;;;1.35;100.00;103969.13;5055164;28;19929;-75
2023/01/24 03:44:25;;;;;;;;;;;;;;;1.35;100.00;103976.97;5054948;28;19957;-75
2023/01/24 03:46:50;;;;;;;;;;;;;;;1.35;100.00;103972.66;5056483;28;19936;-75
2023/01/24 03:49:19;;;;;;;;;;;;;;;1.35;100.00;103974.38;5056262;28;20420;-75
2023/01/24 03:54:28;;;;;;;;;;;;;;;1.34;100.00;103981.31;5057791;28;20651;-75
2023/01/24 03:56:54;;;;;;;;;;;;;;;1.33;100.00;103981.25;5042866;28;19924;-76
2023/01/24 03:59:19;;;;;;;;;;;;;;;1.33;100.00;103976.03;5062660;28;19928;-75
2023/01/24 04:01:44;;;;;;;;;;;;;;;1.33;100.00;103982.16;5061397;28;20383;-75
2023/01/24 04:04:11;;;;;;;;;;;;;;;1.32;100.00;103985.56;5059464;28;20350;-75
2023/01/24 04:06:36;;;;;;;;;;;;;;;1.33;100.00;103987.38;5061387;28;19929;-75
2023/01/24 04:09:02;;;;;;;;;;;;;;;1.35;100.00;103979.59;5056228;28;19938;-75
2023/01/24 04:11:27;;;;;;;;;;;;;;;1.36;100.00;103994.41;5055738;28;20007;-75
2023/01/24 04:13:53;;;;;;;;;;;;;;;1.35;100.00;103982.19;5058709;28;19924;-75
2023/01/24 04:16:18;;;;;;;;;;;;;;;1.36;100.00;103978.75;5062005;28;20026;-75
2023/01/24 04:18:43;;;;;;;;;;;;;;;1.37;100.00;103982.28;5066253;28;19970;-74
2023/01/24 04:21:09;;;;;;;;;;;;;;;1.36;100.00;103981.38;5065309;28;20402;-75
2023/01/24 04:23:34;;;;;;;;;;;;;;;1.37;100.00;103984.88;5063881;28;19924;-75
2023/01/24 04:26:00;;;;;;;;;;;;;;;1.36;100.00;103981.38;5065903;28;21074;-75
2023/01/24 04:28:26;;;;;;;;;;;;;;;1.35;100.00;103988.31;5060742;28;20489;-75
2023/01/24 04:30:58;;;;;;;;;;;;;;;1.35;100.00;103979.59;5057266;28;19928;-75
2023/01/24 04:33:23;;;;;;;;;;;;;;;1.34;100.00;103989.16;5064493;28;20005;-75
2023/01/24 04:35:49;;;;;;;;;;;;;;;1.32;100.00;103982.06;5061535;28;20409;-75
2023/01/24 04:38:14;;;;;;;;;;;;;;;1.31;100.00;103989.00;5058577;28;21499;-75
2023/01/24 04:40:40;;;;;;;;;;;;;;;1.32;100.00;103989.91;5063920;28;21471;-75
2023/01/24 04:43:05;;;;;;;;;;;;;;;1.32;100.00;103985.56;5064231;28;19936;-75
2023/01/24 04:45:31;;;;;;;;;;;;;;;1.32;100.00;103985.56;5069224;28;20382;-74
2023/01/24 04:47:56;;;;;;;;;;;;;;;1.31;100.00;103988.13;5064770;28;19993;-75
2023/01/24 04:50:22;;;;;;;;;;;;;;;1.31;100.00;103982.91;5058317;28;19994;-75
2023/01/24 04:52:48;;;;;;;;;;;;;;;1.30;100.00;103984.59;5058209;28;19928;-75
2023/01/24 04:55:13;;;;;;;;;;;;;;;1.32;100.00;103995.13;5057929;28;20228;-75
2023/01/24 04:57:38;;;;;;;;;;;;;;;1.31;100.00;103985.53;5049304;28;19941;-75
2023/01/24 05:00:04;;;;;;;;;;;;;;;1.30;100.00;103987.22;5053783;28;20455;-74
2023/01/24 05:02:30;;;;;;;;;;;;;;;1.30;100.00;103978.50;5057015;28;19932;-75
2023/01/24 05:04:55;;;;;;;;;;;;;;;1.30;100.00;103981.13;5073548;28;19935;-74
2023/01/24 05:07:20;;;;;;;;;;;;;;;1.30;100.00;103982.00;5064036;28;19916;-75
2023/01/24 05:09:46;;;;;;;;;;;;;;;1.28;100.00;103977.53;5071136;28;19932;-75
2023/01/24 05:12:11;;;;;;;;;;;;;;;1.28;100.00;103980.16;5054392;28;20996;-75
2023/01/24 05:14:37;;;;;;;;;;;;;;;1.29;100.00;103979.31;5058425;28;20535;-75
2023/01/24 05:17:02;;;;;;;;;;;;;;;1.29;100.00;103977.63;5055769;28;20655;-75
2023/01/24 05:19:28;;;;;;;;;;;;;;;1.30;100.00;103978.50;5059378;28;19932;-74
2023/01/24 05:21:53;;;;;;;;;;;;;;;1.29;100.00;103964.56;5067197;28;19928;-75
2023/01/24 05:24:18;;;;;;;;;;;;;;;1.29;100.00;103975.00;5062946;28;19928;-74
2023/01/24 05:26:44;;;;;;;;;;;;;;;1.29;100.00;103979.31;5062474;28;20882;-74
2023/01/24 05:29:09;;;;;;;;;;;;;;;1.30;100.00;103973.28;5059228;28;20064;-74
2023/01/24 05:31:35;;;;;;;;;;;;;;;1.29;100.00;103963.66;5056943;28;20058;-74
2023/01/24 05:34:00;;;;;;;;;;;;;;;1.29;100.00;103975.00;5075008;28;19981;-75
2023/01/24 05:36:25;;;;;;;;;;;;;;;1.29;100.00;103971.47;5055066;28;20002;-74
2023/01/24 05:38:51;;;;;;;;;;;;;;;1.27;100.00;103974.06;5055199;28;19940;-74
2023/01/24 05:41:17;;;;;;;;;;;;;;;1.27;100.00;103980.97;5058299;28;20256;-74
2023/01/24 05:43:42;;;;;;;;;;;;;;;1.26;100.00;103979.19;5061647;28;19928;-75
2023/01/24 05:46:12;;;;;;;;;;;;;;;1.26;100.00;103987.94;5058277;28;20277;-74
2023/01/24 05:48:37;;;;;;;;;;;;;;;1.25;100.00;103982.63;5056565;28;20188;-75
2023/01/24 05:51:03;;;;;;;;;;;;;;;1.24;100.00;103981.72;5058861;28;20032;-75
2023/01/24 05:53:30;;;;;;;;;;;;;;;1.23;100.00;103982.56;5058308;28;20387;-75
2023/01/24 05:55:56;;;;;;;;;;;;;;;1.23;100.00;103982.56;5042778;28;19936;-75
2023/01/24 05:58:21;;;;;;;;;;;;;;;1.23;100.00;103979.94;5062963;28;19935;-75
2023/01/24 06:00:47;;;;;;;;;;;;;;;1.23;100.00;103982.56;5061031;28;19928;-75
2023/01/24 06:03:12;;;;;;;;;;;;;;;1.22;100.00;103981.66;5060812;28;20115;-75
2023/01/24 06:05:37;;;;;;;;;;;;;;;1.22;100.00;103986.88;5057898;28;20398;-75
2023/01/24 06:08:03;;;;;;;;;;;;;;;1.20;100.00;103985.91;5047306;28;20394;-75
2023/01/24 06:10:28;;;;;;;;;;;;;;;1.20;100.00;103983.31;5056272;28;19928;-75
2023/01/24 06:12:53;;;;;;;;;;;;;;;1.19;100.00;103988.47;5056513;28;20399;-75
2023/01/24 06:15:19;;;;;;;;;;;;;;;1.18;100.00;103990.19;5059374;28;19932;-75
2023/01/24 06:17:44;;;;;;;;;;;;;;;1.18;100.00;104005.84;5059000;28;19976;-75
2023/01/24 06:20:10;;;;;;;;;;;;;;;1.17;100.00;104001.47;5055798;28;19974;-75
2023/01/24 06:22:45;;;;;;;;;;;;;;;1.16;100.00;104002.28;5064252;28;20065;-75
2023/01/24 06:25:13;;;;;;;;;;;;;;;1.13;100.00;104002.13;5058436;28;20018;-75
2023/01/24 06:27:39;;;;;;;;;;;;;;;1.14;100.00;104011.75;5062165;28;20395;-75
2023/01/24 06:30:04;;;;;;;;;;;;;;;1.16;100.00;104014.44;5056133;28;19928;-75
2023/01/24 06:32:29;;;;;;;;;;;;;;;1.15;100.00;104021.34;5059038;28;19981;-76
2023/01/24 06:34:55;;;;;;;;;;;;;;;1.13;100.00;104025.63;5056408;28;19934;-75
2023/01/24 06:37:20;;;;;;;;;;;;;;;1.10;100.00;104014.16;5062567;28;19928;-75
2023/01/24 06:39:49;;;;;;;;;;;;;;;1.09;100.00;104018.47;5055355;28;19920;-75
2023/01/24 06:42:16;;;;;;;;;;;;;;;1.10;100.00;104025.50;5064300;28;19928;-75
2023/01/24 06:44:41;;;;;;;;;;;;;;;1.10;100.00;104025.50;5056882;28;20302;-75
2023/01/24 06:47:10;;;;;;;;;;;;;;;1.09;100.00;104023.69;5058768;28;19935;-76
2023/01/24 06:49:35;;;;;;;;;;;;;;;1.08;100.00;104017.59;5062985;28;20365;-75
2023/01/24 06:52:01;;;;;;;;;;;;;;;1.09;100.00;104021.06;5059378;28;19920;-76
2023/01/24 06:54:26;;;;;;;;;;;;;;;1.07;100.00;104014.91;5058493;28;19932;-76
2023/01/24 06:56:51;;;;;;;;;;;;;;;1.07;100.00;104022.72;5058009;28;20283;-76
2023/01/24 06:59:16;;;;;;;;;;;;;;;1.07;100.00;104020.13;5056851;28;19935;-75
2023/01/24 07:01:42;;;;;;;;;;;;;;;1.06;100.00;104016.66;5059262;28;21609;-76
2023/01/24 07:04:07;;;;;;;;;;;;;;;1.06;100.00;104021.88;5056238;28;19932;-75
2023/01/24 07:06:33;;;;;;;;;;;;;;;1.06;100.00;104020.94;5057996;28;19932;-75
2023/01/24 07:08:58;;;;;;;;;;;;;;;1.06;100.00;104021.88;5061121;28;20476;-76
2023/01/24 07:11:24;;;;;;;;;;;;;;;1.06;100.00;104028.78;5056413;28;19932;-75
2023/01/24 07:13:49;;;;;;;;;;;;;;;1.05;100.00;104033.09;5056562;28;19963;-76
2023/01/24 07:16:14;;;;;;;;;;;;;;;1.04;100.00;104030.44;5061433;28;19932;-76
2023/01/24 07:18:40;;;;;;;;;;;;;;;1.04;100.00;104033.06;5040146;28;19929;-76
2023/01/24 07:21:06;;;;;;;;;;;;;;;1.03;100.00;104031.28;5053856;28;20410;-76
2023/01/24 07:23:33;;;;;;;;;;;;;;;1.03;100.00;104039.09;5061308;28;19935;-76
2023/01/24 07:25:59;;;;;;;;;;;;;;;1.02;100.00;104043.41;5058178;28;20573;-75
2023/01/24 07:28:24;;;;;;;;;;;;;;;1.03;100.00;104039.09;5058403;28;20015;-75
2023/01/24 07:30:51;;;;;;;;;;;;;;;1.01;100.00;104041.63;5061158;28;19924;-76
2023/01/24 07:33:17;;;;;;;;;;;;;;;1.03;100.00;104046.94;5059585;28;20640;-75
2023/01/24 07:35:42;;;;;;;;;;;;;;;1.02;100.00;104051.25;5062898;28;19932;-76
2023/01/24 07:38:08;;;;;;;;;;;;;;;1.02;100.00;104047.72;5046251;28;19928;-75
2023/01/24 07:40:33;;;;;;;;;;;;;;;1.00;100.00;104054.59;5071681;28;20310;-76
2023/01/24 07:43:00;;;;;;;;;;;;;;;0.99;100.00;104058.03;5056256;28;19928;-75
2023/01/24 07:45:25;;;;;;;;;;;;;;;0.97;100.00;104067.50;5058296;28;20046;-76
2023/01/24 07:47:53;;;;;;;;;;;;;;;0.94;100.00;104063.91;5056713;28;20484;-75
2023/01/24 07:50:19;;;;;;;;;;;;;;;0.96;100.00;104058.78;5057025;28;19931;-76
2023/01/24 07:52:44;;;;;;;;;;;;;;;0.96;100.00;104052.69;5060394;28;20256;-76
2023/01/24 07:55:10;;;;;;;;;;;;;;;0.96;100.00;104057.91;5059392;28;19971;-76
2023/01/24 07:57:35;;;;;;;;;;;;;;;0.97;100.00;104057.06;5061404;28;19957;-76
2023/01/24 08:00:00;;;;;;;;;;;;;;;0.97;100.00;104067.50;5060474;28;20033;-76
2023/01/24 08:02:26;;;;;;;;;;;;;;;0.98;100.00;104058.88;5060835;28;20314;-76
2023/01/24 08:04:51;;;;;;;;;;;;;;;0.98;100.00;104066.69;5058317;28;20019;-76
2023/01/24 08:07:16;;;;;;;;;;;;;;;0.97;100.00;104071.00;5063519;28;19962;-76
2023/01/24 08:09:42;;;;;;;;;;;;;;;0.99;100.00;104069.38;5044069;28;19927;-75
2023/01/24 08:12:07;;;;;;;;;;;;;;;0.99;100.00;104068.47;5057031;28;20884;-77
2023/01/24 08:14:32;;;;;;;;;;;;;;;0.98;100.00;104072.78;5062055;28;19932;-74
2023/01/24 08:16:58;;;;;;;;;;;;;;;0.98;100.00;104075.41;5061627;28;19928;-75
2023/01/24 08:19:23;;;;;;;;;;;;;;;0.99;100.00;104076.31;5061118;28;20244;-74
2023/01/24 08:21:49;;;;;;;;;;;;;;;0.99;100.00;104085.03;5063478;28;19932;-74
2023/01/24 08:24:15;;;;;;;;;;;;;;;0.97;100.00;104086.66;5061413;28;21567;-74
2023/01/24 08:26:40;;;;;;;;;;;;;;;0.96;100.00;104091.84;5060597;28;19981;-74
2023/01/24 08:29:05;;;;;;;;;;;;;;;0.97;100.00;104096.22;5070064;28;19924;-75
2023/01/24 08:31:31;;;;;;;;;;;;;;;0.97;100.00;104091.88;5052596;28;19927;-75
2023/01/24 08:33:56;;;;;;;;;;;;;;;0.97;100.00;104089.25;5061845;28;20555;-76
2023/01/24 08:36:23;;;;;;;;;;;;;;;0.97;100.00;104091.88;5060201;28;20466;-75
2023/01/24 08:38:49;;;;;;;;;;;;;;;0.98;100.00;104096.28;5060472;28;19928;-75
2023/01/24 08:41:14;;;;;;;;;;;;;;;0.98;100.00;104092.78;5063239;28;19939;-75
2023/01/24 08:43:39;;;;;;;;;;;;;;;0.99;100.00;104090.25;5060980;28;19946;-76
2023/01/24 08:46:05;;;;;;;;;;;;;;;0.99;100.00;104085.03;5059742;28;19986;-74
2023/01/24 08:48:30;;;;;;;;;;;;;;;1.01;100.00;104092.91;5043251;28;19940;-75
2023/01/24 08:50:56;;;;;;;;;;;;;;;1.00;100.00;104092.03;5065623;28;20880;-74
2023/01/24 08:53:21;;;;;;;;;;;;;;;1.03;100.00;104099.13;5047412;28;19946;-74
2023/01/24 08:55:50;;;;;;;;;;;;;;;1.02;100.00;104099.91;5065945;28;20229;-74
2023/01/24 08:58:15;;;;;;;;;;;;;;;1.01;100.00;104095.53;5068948;28;19924;-74
2023/01/24 09:00:41;;;;;;;;;;;;;;;1.01;100.00;104098.13;5057776;28;19973;-76
2023/01/24 09:03:06;;;;;;;;;;;;;;;1.04;100.00;104106.13;5064327;28;19924;-74
2023/01/24 09:05:31;;;;;;;;;;;;;;;1.06;100.00;104107.06;5062219;28;19936;-75
2023/01/24 09:07:57;;;;;;;;;;;;;;;1.06;100.00;104107.06;5056128;28;20032;-75
2023/01/24 09:10:22;;;;;;;;;;;;;;;1.06;100.00;104105.38;5059619;28;20411;-75
2023/01/24 09:12:48;;;;;;;;;;;;;;;1.07;100.00;104109.78;5062898;28;19931;-75
2023/01/24 09:15:13;;;;;;;;;;;;;;;1.07;100.00;104116.69;5065686;28;20406;-74
2023/01/24 09:17:39;;;;;;;;;;;;;;;1.06;100.00;104113.22;5059775;28;19936;-75
2023/01/24 09:20:05;;;;;;;;;;;;;;;1.07;100.00;104117.59;5062514;28;20018;-74
2023/01/24 09:22:31;;;;;;;;;;;;;;;1.08;100.00;104115.88;5047789;28;19936;-74
2023/01/24 09:24:56;;;;;;;;;;;;;;;1.07;100.00;104119.31;5047052;28;20006;-74
2023/01/24 09:27:21;;;;;;;;;;;;;;;1.06;100.00;104118.44;5059111;28;20075;-75
2023/01/24 09:29:46;;;;;;;;;;;;;;;1.08;100.00;104118.47;5059133;28;19928;-75
2023/01/24 09:32:13;;;;;;;;;;;;;;;1.09;100.00;104117.66;5040788;28;20476;-74
2023/01/24 09:34:45;;;;;;;;;;;;;;;1.10;100.00;104119.47;5060417;28;21568;-75
2023/01/24 09:37:11;;;;;;;;;;;;;;;1.11;100.00;104116.03;5064352;28;20486;-74
2023/01/24 09:39:36;;;;;;;;;;;;;;;1.11;100.00;104110.81;5065641;28;19932;-74
2023/01/24 09:42:01;;;;;;;;;;;;;;;1.11;100.00;104113.41;5064253;28;20310;-75
2023/01/24 09:44:40;;;;;;;;;;;;;;;1.12;100.00;104117.81;5054983;28;20390;-76
2023/01/24 09:47:14;;;;;;;;;;;;;;;1.13;100.00;104129.16;5059089;28;20021;-76
2023/01/24 09:49:41;;;;;;;;;;;;;;;1.13;100.00;104123.94;5064128;28;19924;-75
2023/01/24 09:52:07;;;;;;;;;;;;;;;1.14;100.00;104121.38;5063153;28;19978;-74
2023/01/24 09:54:52;;;;;;;;;;;;;;;1.15;100.00;104120.53;5060573;28;20022;-74
2023/01/24 09:57:22;;;;;;;;;;;;;;;1.14;100.00;104116.16;5054086;28;20819;-75
2023/01/24 09:59:49;;;;;;;;;;;;;;;1.16;100.00;104118.84;5046633;28;19936;-76
2023/01/24 10:02:16;;;;;;;;;;;;;;;1.19;100.00;104114.66;5053096;28;20053;-76
2023/01/24 10:04:42;;;;;;;;;;;;;;;1.20;100.00;104113.84;5051467;28;20071;-77
2023/01/24 10:07:13;;;;;;;;;;;;;;;1.21;100.00;104113.00;5037387;28;20434;-75
2023/01/24 10:10:08;;;;;;;;;;;;;;;1.25;100.00;104113.16;5052268;28;19977;-75
2023/01/24 10:12:39;;;;;;;;;;;;;;;1.26;100.00;104109.72;5023408;28;19931;-75
2023/01/24 10:15:04;;;;;;;;;;;;;;;1.23;100.00;104115.69;5053145;28;19932;-75
2023/01/24 10:17:53;;;;;;;;;;;;;;;1.24;100.00;104116.59;5053293;28;19975;-75
2023/01/24 10:20:37;;;;;;;;;;;;;;;1.22;100.00;104109.56;5051106;28;20017;-75
2023/01/24 10:23:08;;;;;;;;;;;;;;;1.22;100.00;104109.56;5052836;28;20044;-76
2023/01/24 10:25:42;;;;;;;;;;;;;;;1.22;100.00;104101.72;5059329;28;20375;-76
2023/01/24 10:28:10;;;;;;;;;;;;;;;1.21;100.00;104096.47;5059553;28;19928;-76
2023/01/24 10:30:38;;;;;;;;;;;;;;;1.24;100.00;104103.56;5064740;28;20405;-76
2023/01/24 10:33:05;;;;;;;;;;;;;;;1.24;100.00;104111.38;5061079;28;20006;-75
2023/01/24 10:35:33;;;;;;;;;;;;;;;1.24;100.00;104100.94;5064786;28;21647;-76
2023/01/24 10:37:59;;;;;;;;;;;;;;;1.22;100.00;104099.13;5061237;28;19930;-76
2023/01/24 10:40:25;;;;;;;;;;;;;;;1.22;100.00;104091.28;5066753;28;19935;-76
2023/01/24 10:42:50;;;;;;;;;;;;;;;1.20;100.00;104092.06;5061210;28;20016;-76
2023/01/24 10:45:19;;;;;;;;;;;;;;;1.18;100.00;104092.00;5065385;28;19924;-75
2023/01/24 10:47:44;;;;;;;;;;;;;;;1.12;100.00;104091.72;5061579;28;20395;-76
2023/01/24 10:50:11;;;;;;;;;;;;;;;1.11;100.00;104079.50;5060586;28;19966;-76
2023/01/24 10:52:52;;;;;;;;;;;;;;;1.11;100.00;104079.50;5060109;28;22066;-76
2023/01/24 10:55:38;;;;;;;;;;;;;;;1.11;100.00;104084.72;5060165;28;19943;-76
2023/01/24 10:58:14;;;;;;;;;;;;;;;1.13;100.00;104085.66;5061484;28;20387;-76
2023/01/24 11:00:40;;;;;;;;;;;;;;;1.15;100.00;104088.34;5062409;28;20384;-75
2023/01/24 11:03:16;;;;;;;;;;;;;;;1.15;100.00;104088.34;5061878;28;19932;-76
2023/01/24 11:05:49;;;;;;;;;;;;;;;1.12;100.00;104090.78;5061055;28;20241;-76
2023/01/24 11:08:15;;;;;;;;;;;;;;;1.12;100.00;104080.34;5065254;28;19993;-76
2023/01/24 11:10:41;;;;;;;;;;;;;;;1.12;100.00;104081.28;5061201;28;19931;-76
2023/01/24 11:13:22;;;;;;;;;;;;;;;1.13;100.00;104076.94;5062215;28;19927;-75
2023/01/24 11:15:47;;;;;;;;;;;;;;;1.13;100.00;104082.19;5061258;28;20015;-76
2023/01/24 11:18:23;;;;;;;;;;;;;;;1.12;100.00;104081.28;5058923;28;20486;-75
2023/01/24 11:21:03;;;;;;;;;;;;;;;1.12;100.00;104070.81;5066629;28;19939;-75
2023/01/24 11:23:29;;;;;;;;;;;;;;;1.14;100.00;104066.56;5066556;28;20425;-75
2023/01/24 11:25:55;;;;;;;;;;;;;;;1.17;100.00;104073.63;5056813;28;19924;-76
2023/01/24 11:28:24;;;;;;;;;;;;;;;1.17;100.00;104063.19;5063002;28;19988;-75
2023/01/24 11:30:50;;;;;;;;;;;;;;;1.18;100.00;104068.50;5062526;28;20060;-76
2023/01/24 11:33:27;;;;;;;;;;;;;;;1.19;100.00;104072.91;5059242;28;20019;-76
2023/01/24 11:35:54;;;;;;;;;;;;;;;1.20;100.00;104072.06;5061801;28;19928;-76
2023/01/24 11:38:31;;;;;;;;;;;;;;;1.21;100.00;104067.75;5049990;28;19990;-76
2023/01/24 11:41:09;;;;;;;;;;;;;;;1.21;100.00;104065.13;5065368;28;19928;-76
2023/01/24 11:43:50;;;;;;;;;;;;;;;1.22;100.00;104070.41;5060121;28;21532;-76
2023/01/24 11:46:20;;;;;;;;;;;;;;;1.20;100.00;104064.22;5061042;28;19928;-76
2023/01/24 11:48:47;;;;;;;;;;;;;;;1.21;100.00;104059.91;5059852;28;20022;-76
2023/01/24 11:51:15;;;;;;;;;;;;;;;1.24;100.00;104051.34;5044535;28;20534;-76
2023/01/24 11:53:41;;;;;;;;;;;;;;;1.26;100.00;104050.59;5057564;28;20120;-76
2023/01/24 11:56:12;;;;;;;;;;;;;;;1.28;100.00;104050.63;5052998;28;20417;-74
2023/01/24 11:58:40;;;;;;;;;;;;;;;1.26;100.00;104045.38;5055418;28;19934;-75
2023/01/24 12:01:11;;;;;;;;;;;;;;;1.27;100.00;104038.41;5055762;28;19928;-75
2023/01/24 12:03:39;;;;;;;;;;;;;;;1.27;100.00;104035.78;5060866;28;19928;-75
2023/01/24 12:06:05;;;;;;;;;;;;;;;1.28;100.00;104037.56;5054856;28;19990;-75
2023/01/24 12:08:50;;;;;;;;;;;;;;;1.29;100.00;104034.13;5053535;28;19928;-76
2023/01/24 12:11:15;;;;;;;;;;;;;;;1.27;100.00;104027.97;5058109;28;20011;-76
2023/01/24 12:13:40;;;;;;;;;;;;;;;1.28;100.00;104027.13;5063358;28;20395;-76
2023/01/24 12:16:16;;;;;;;;;;;;;;;1.28;100.00;104032.34;5052579;28;19932;-75
2023/01/24 12:19:00;;;;;;;;;;;;;;;1.29;100.00;104027.22;5052130;28;19935;-75
2023/01/24 12:21:25;;;;;;;;;;;;;;;1.30;100.00;104022.91;5062723;28;19932;-75
2023/01/24 12:23:54;;;;;;;;;;;;;;;1.29;100.00;104013.25;5046807;28;19986;-75
2023/01/24 12:26:27;;;;;;;;;;;;;;;1.29;100.00;104010.63;5053930;28;20393;-75
2023/01/24 12:29:12;;;;;;;;;;;;;;;1.29;100.00;104014.16;5061407;28;20054;-75
2023/01/24 12:31:40;;;;;;;;;;;;;;;1.30;100.00;104007.22;5056550;28;20590;-75
2023/01/24 12:34:16;;;;;;;;;;;;;;;1.30;100.00;103999.41;5055598;28;19928;-75
2023/01/24 12:36:44;;;;;;;;;;;;;;;1.31;100.00;103990.75;5057658;28;20008;-75
2023/01/24 12:39:15;;;;;;;;;;;;;;;1.30;100.00;103991.56;5049373;28;20023;-75
2023/01/24 12:41:41;;;;;;;;;;;;;;;1.29;100.00;103989.75;5065198;28;19928;-75
2023/01/24 12:44:26;;;;;;;;;;;;;;;1.29;100.00;103988.06;5057619;28;19936;-75
2023/01/24 12:47:07;;;;;;;;;;;;;;;1.30;100.00;103984.59;5061857;28;19934;-75
2023/01/24 12:49:38;;;;;;;;;;;;;;;1.31;100.00;103982.91;5068541;28;19932;-75
2023/01/24 12:52:42;;;;;;;;;;;;;;;1.29;100.00;103975.00;5062915;28;19934;-74
2023/01/24 12:55:19;;;;;;;;;;;;;;;1.30;100.00;103974.16;5045851;28;20070;-75
2023/01/24 12:57:45;;;;;;;;;;;;;;;1.29;100.00;103980.22;5029230;28;20463;-75
2023/01/24 13:00:18;;;;;;;;;;;;;;;1.29;100.00;103974.09;5055294;28;19925;-75
2023/01/24 13:02:46;;;;;;;;;;;;;;;1.29;100.00;103975.00;5076885;28;19963;-75
2023/01/24 13:05:31;;;;;;;;;;;;;;;1.29;100.00;103964.56;5063099;28;19935;-75
2023/01/24 13:08:15;;;;;;;;;;;;;;;1.26;100.00;103968.75;5069111;28;19981;-75
2023/01/24 13:10:44;;;;;;;;;;;;;;;1.22;100.00;103967.72;5079897;28;19931;-75
2023/01/24 13:13:17;;;;;;;;;;;;;;;1.23;100.00;103966.91;5061987;28;20431;-75
2023/01/24 13:15:47;;;;;;;;;;;;;;;1.24;100.00;103963.44;5063136;28;19931;-76